KATW/ATW METAR and TAF weather

Enter ICAO airport designator
Station Type Date Time Source
KATW METAR 2019/08/25 01:45 UTC NOAA

KATW 250145Z VRB04KT 10SM SKC 18/11 A3023


Station Type Date Time Source
KATW Decoded METAR 2019/08/25 01:45 UTC NOAA

Station name not available
Aug 24, 2019 - 09:45 PM EDT / 2019.08.25 0145 UTC
Wind: Variable at 5 MPH (4 KT):0
Visibility: 10 mile(s):0
Sky conditions: clear
Temperature: 64 F (18 C)
Dew Point: 51 F (11 C)
Relative Humidity: 63%
Pressure (altimeter): 30.23 in. Hg (1023 hPa)
ob: KATW 250145Z VRB04KT 10SM SKC 18/11 A3023
cycle: 2

Station Type Date Time Source
KATW TAF 2019/08/24 19:06 UTC NOAA

TAF
AMD KATW 241905Z 2419/2518 15008KT P6SM BKN050
FM242300 15006KT P6SM SCT060
FM250100 12003KT P6SM SKC
FM251500 14007KT P6SM SCT035 SCT150

Example: see airport list